Mozhga, Russia
Current Conditions -  °F | °C
As of 10:00 PM on Sunday 25 Jan 2015 (Local Time) from UWKE Reporting Station
Blowing Snow Blowing Snow  
Wind Chill: -8°   Ceiling: 10000
Heat Index:   Visibility: 6mi
Dew Point: -2°   Wind: 13mph
Humidity: 62%   Direction: 200°SSW
Pressure: 30.74"   Gusts: 20mph
Location:  56.45°N, 52.19°E
Report Text: UWKE 251800Z 20006G09MPS 9999 DRSN BKN100 M13/M19 Q1041 NOSIGRMK QFE763/1017 21410560
Loading
Personal Weather Stations






























Interactive Weather Map New forecast layout! Learn more

10-Day Weather Forecast

Advertisements
Track Severe Weather on mobile